createdAt,value
2018-01-27T00:00:41.772Z,1023.54
2018-01-27T00:01:41.760Z,1023.53
2018-01-27T00:02:41.716Z,1023.59
2018-01-27T00:03:41.688Z,1023.61
2018-01-27T00:04:41.657Z,1023.61
2018-01-27T00:05:41.628Z,1023.57
2018-01-27T00:06:41.596Z,1023.67
2018-01-27T00:07:41.824Z,1023.68
2018-01-27T00:08:41.538Z,1023.69
2018-01-27T00:09:41.505Z,1023.70
2018-01-27T00:10:41.478Z,1023.69
2018-01-27T00:11:41.446Z,1023.71
2018-01-27T00:12:41.430Z,1023.71
2018-01-27T00:13:41.395Z,1023.73
2018-01-27T00:14:41.360Z,1023.72
2018-01-27T00:15:41.336Z,1023.73
2018-01-27T00:16:41.304Z,1023.71
2018-01-27T00:17:41.273Z,1023.77
2018-01-27T00:18:41.243Z,1023.77
2018-01-27T00:19:41.566Z,1023.76
2018-01-27T00:20:41.183Z,1023.78
2018-01-27T00:21:41.149Z,1023.74
2018-01-27T00:22:41.134Z,1023.76
2018-01-27T00:23:41.100Z,1023.75
2018-01-27T00:24:41.064Z,1023.76
2018-01-27T00:25:41.034Z,1023.78
2018-01-27T00:26:41.001Z,1023.81
2018-01-27T00:27:40.975Z,1023.79
2018-01-27T00:28:40.947Z,1023.76
2018-01-27T00:29:40.918Z,1023.80
2018-01-27T00:30:40.889Z,1023.77
2018-01-27T00:31:40.857Z,1023.75
2018-01-27T00:32:40.844Z,1023.78
2018-01-27T00:33:40.799Z,1023.81
2018-01-27T00:34:40.770Z,1023.79
2018-01-27T00:35:40.744Z,1023.79
2018-01-27T00:36:40.712Z,1023.79
2018-01-27T00:37:40.978Z,1023.75
2018-01-27T00:38:40.654Z,1023.80
2018-01-27T00:39:40.622Z,1023.70
2018-01-27T00:40:40.586Z,1023.70
2018-01-27T00:41:40.559Z,1023.69
2018-01-27T00:42:40.531Z,1023.69
2018-01-27T00:43:40.507Z,1023.65
2018-01-27T00:44:40.475Z,1023.61
2018-01-27T00:45:40.444Z,1023.66
2018-01-27T00:46:40.418Z,1023.64
2018-01-27T00:47:40.390Z,1023.65
2018-01-27T00:48:40.357Z,1023.61
2018-01-27T00:49:40.626Z,1023.63
2018-01-27T00:50:40.298Z,1023.70
2018-01-27T00:51:40.268Z,1023.70
2018-01-27T00:52:40.234Z,1023.68
2018-01-27T00:53:40.207Z,1023.67
2018-01-27T00:54:40.173Z,1023.72
2018-01-27T00:55:40.445Z,1023.67
2018-01-27T00:56:40.119Z,1023.65
2018-01-27T00:57:40.088Z,1023.72
2018-01-27T00:58:40.057Z,1023.75
2018-01-27T00:59:40.037Z,1023.70
2018-01-27T01:00:39.994Z,1023.73
2018-01-27T01:01:39.976Z,1023.69
2018-01-27T01:02:39.946Z,1023.68
2018-01-27T01:03:39.910Z,1023.70
2018-01-27T01:04:39.879Z,1023.73
2018-01-27T01:05:39.848Z,1023.73
2018-01-27T01:06:39.824Z,1023.73
2018-01-27T01:07:39.789Z,1023.68
2018-01-27T01:08:39.762Z,1023.66
2018-01-27T01:09:39.739Z,1023.69
2018-01-27T01:10:39.700Z,1023.71
2018-01-27T01:11:39.668Z,1023.68
2018-01-27T01:12:39.644Z,1023.66
2018-01-27T01:13:39.869Z,1023.69
2018-01-27T01:14:39.589Z,1023.72
2018-01-27T01:15:39.556Z,1023.76
2018-01-27T01:16:39.522Z,1023.71
2018-01-27T01:17:39.492Z,1023.78
2018-01-27T01:18:39.469Z,1023.76
2018-01-27T01:19:39.443Z,1023.83
2018-01-27T01:20:39.402Z,1023.78
2018-01-27T01:21:39.379Z,1023.82
2018-01-27T01:22:39.353Z,1023.81
2018-01-27T01:23:39.314Z,1023.84
2018-01-27T01:24:39.290Z,1023.75
2018-01-27T01:25:39.560Z,1023.86
2018-01-27T01:26:39.232Z,1023.90
2018-01-27T01:27:39.197Z,1023.88
2018-01-27T01:28:39.169Z,1023.78
2018-01-27T01:29:39.148Z,1023.85
2018-01-27T01:30:39.111Z,1023.85
2018-01-27T01:31:39.081Z,1023.84
2018-01-27T01:32:39.048Z,1023.75
2018-01-27T01:33:39.023Z,1023.90
2018-01-27T01:34:38.991Z,1023.88
2018-01-27T01:35:38.964Z,1023.96
2018-01-27T01:36:38.927Z,1023.89
2018-01-27T01:37:38.895Z,1023.89
2018-01-27T01:38:38.866Z,1023.87
2018-01-27T01:39:38.837Z,1023.87
2018-01-27T01:40:38.813Z,1023.84
2018-01-27T01:41:38.782Z,1023.83
2018-01-27T01:42:38.745Z,1023.84
2018-01-27T01:43:38.720Z,1023.90
2018-01-27T01:44:38.691Z,1023.88
2018-01-27T01:45:38.667Z,1023.86
2018-01-27T01:46:38.637Z,1023.89
2018-01-27T01:47:38.911Z,1023.90
2018-01-27T01:48:38.571Z,1023.97
2018-01-27T01:49:38.545Z,1023.91
2018-01-27T01:50:38.513Z,1023.92
2018-01-27T01:51:38.486Z,1023.91
2018-01-27T01:52:38.454Z,1023.99
2018-01-27T01:53:38.723Z,1023.94
2018-01-27T01:54:38.395Z,1023.93
2018-01-27T01:55:38.362Z,1023.95
2018-01-27T01:56:38.334Z,1023.91
2018-01-27T01:57:38.310Z,1023.93
2018-01-27T01:58:38.273Z,1023.87
2018-01-27T01:59:38.551Z,1023.92
2018-01-27T02:00:38.217Z,1023.91
2018-01-27T02:01:38.191Z,1023.91
2018-01-27T02:02:38.164Z,1023.89
2018-01-27T02:03:38.139Z,1023.87
2018-01-27T02:04:38.092Z,1023.82
2018-01-27T02:05:38.069Z,1023.79
2018-01-27T02:06:38.041Z,1023.83
2018-01-27T02:07:38.020Z,1023.85
2018-01-27T02:08:37.978Z,1023.80
2018-01-27T02:09:37.950Z,1023.84
2018-01-27T02:10:37.917Z,1023.84
2018-01-27T02:11:37.888Z,1023.83
2018-01-27T02:12:37.866Z,1023.82
2018-01-27T02:13:37.828Z,1023.86
2018-01-27T02:14:37.798Z,1023.85
2018-01-27T02:15:37.766Z,1023.88
2018-01-27T02:16:37.739Z,1023.93
2018-01-27T02:17:37.967Z,1023.95
2018-01-27T02:18:37.679Z,1023.95
2018-01-27T02:19:37.653Z,1023.96
2018-01-27T02:20:37.618Z,1023.97
2018-01-27T02:21:37.589Z,1024.00
2018-01-27T02:22:37.561Z,1023.99
2018-01-27T02:23:37.532Z,1023.98
2018-01-27T02:24:37.499Z,1023.97
2018-01-27T02:25:37.467Z,1024.01
2018-01-27T02:26:37.445Z,1023.96
2018-01-27T02:27:37.409Z,1023.96
2018-01-27T02:28:37.394Z,1023.97
2018-01-27T02:29:37.362Z,1023.90
2018-01-27T02:30:37.322Z,1023.95
2018-01-27T02:31:37.301Z,1023.96
2018-01-27T02:32:37.265Z,1023.93
2018-01-27T02:33:37.235Z,1023.99
2018-01-27T02:34:37.229Z,1023.95
2018-01-27T02:35:37.479Z,1023.92
2018-01-27T02:36:37.143Z,1023.90
2018-01-27T02:37:37.115Z,1023.91
2018-01-27T02:38:37.086Z,1023.88
2018-01-27T02:39:37.064Z,1023.93
2018-01-27T02:40:37.028Z,1023.96
2018-01-27T02:41:36.994Z,1023.96
2018-01-27T02:42:36.967Z,1023.88
2018-01-27T02:43:36.939Z,1023.92
2018-01-27T02:44:36.910Z,1023.95
2018-01-27T02:45:36.885Z,1023.95
2018-01-27T02:46:36.849Z,1023.92
2018-01-27T02:47:36.820Z,1023.91
2018-01-27T02:48:36.794Z,1023.87
2018-01-27T02:49:36.762Z,1023.85
2018-01-27T02:50:36.735Z,1023.88
2018-01-27T02:51:36.703Z,1023.91
2018-01-27T02:52:36.664Z,1023.94
2018-01-27T02:53:36.639Z,1023.99
2018-01-27T02:54:36.611Z,1024.00
2018-01-27T02:55:36.575Z,1024.02
2018-01-27T02:56:36.551Z,1024.01
2018-01-27T02:57:36.519Z,1024.04
2018-01-27T02:58:36.492Z,1024.06
2018-01-27T02:59:36.462Z,1024.08
2018-01-27T03:00:36.433Z,1024.07
2018-01-27T03:01:36.397Z,1024.08
2018-01-27T03:02:36.377Z,1024.05
2018-01-27T03:03:36.340Z,1024.09
2018-01-27T03:04:36.661Z,1024.07
2018-01-27T03:05:36.286Z,1024.08
2018-01-27T03:06:36.250Z,1024.10
2018-01-27T03:07:36.227Z,1024.10
2018-01-27T03:08:36.193Z,1024.07
2018-01-27T03:09:36.164Z,1024.11
2018-01-27T03:10:36.980Z,1024.11
2018-01-27T03:11:36.100Z,1024.11
2018-01-27T03:12:36.072Z,1024.09
2018-01-27T03:13:36.050Z,1024.10
2018-01-27T03:14:36.017Z,1024.11
2018-01-27T03:15:35.982Z,1024.15
2018-01-27T03:16:35.955Z,1024.15
2018-01-27T03:17:35.928Z,1024.15
2018-01-27T03:18:35.899Z,1024.23
2018-01-27T03:19:35.865Z,1024.23
2018-01-27T03:20:35.838Z,1024.18
2018-01-27T03:21:35.801Z,1024.19
2018-01-27T03:22:35.776Z,1024.23
2018-01-27T03:23:35.753Z,1024.23
2018-01-27T03:24:35.715Z,1024.21
2018-01-27T03:25:35.687Z,1024.24
2018-01-27T03:26:35.655Z,1024.24
2018-01-27T03:27:35.628Z,1024.24
2018-01-27T03:28:35.602Z,1024.23
2018-01-27T03:29:35.568Z,1024.28
2018-01-27T03:30:35.541Z,1024.31
2018-01-27T03:31:35.514Z,1024.29
2018-01-27T03:32:35.479Z,1024.29
2018-01-27T03:33:35.752Z,1024.26
2018-01-27T03:34:35.417Z,1024.30
2018-01-27T03:35:35.396Z,1024.31
2018-01-27T03:36:35.356Z,1024.33
2018-01-27T03:37:35.333Z,1024.32
2018-01-27T03:38:35.298Z,1024.28
2018-01-27T03:39:35.521Z,1024.35
2018-01-27T03:40:35.242Z,1024.35
2018-01-27T03:41:35.212Z,1024.37
2018-01-27T03:42:35.179Z,1024.38
2018-01-27T03:43:35.151Z,1024.32
2018-01-27T03:44:35.126Z,1024.33
2018-01-27T03:45:35.391Z,1024.35
2018-01-27T03:46:35.069Z,1024.32
2018-01-27T03:47:35.031Z,1024.38
2018-01-27T03:48:35.006Z,1024.40
2018-01-27T03:49:34.970Z,1024.38
2018-01-27T03:50:34.957Z,1024.40
2018-01-27T03:51:34.919Z,1024.42
2018-01-27T03:52:34.894Z,1024.44
2018-01-27T03:53:34.851Z,1024.45
2018-01-27T03:54:34.818Z,1024.49
2018-01-27T03:55:34.792Z,1024.49
2018-01-27T03:56:34.766Z,1024.49
2018-01-27T03:57:34.735Z,1024.54
2018-01-27T03:58:34.706Z,1024.56
2018-01-27T03:59:34.678Z,1024.59
2018-01-27T04:00:34.649Z,1024.60
2018-01-27T04:01:34.617Z,1024.59
2018-01-27T04:02:34.584Z,1024.62
2018-01-27T04:03:34.557Z,1024.64
2018-01-27T04:04:34.526Z,1024.61
2018-01-27T04:05:34.494Z,1024.64
2018-01-27T04:06:34.478Z,1024.65
2018-01-27T04:07:34.440Z,1024.65
2018-01-27T04:08:34.407Z,1024.65
2018-01-27T04:09:34.376Z,1024.70
2018-01-27T04:10:34.347Z,1024.69
2018-01-27T04:11:34.316Z,1024.68
2018-01-27T04:12:34.292Z,1024.71
2018-01-27T04:13:34.263Z,1024.72
2018-01-27T04:14:34.226Z,1024.75
2018-01-27T04:15:34.204Z,1024.80
2018-01-27T04:16:34.173Z,1024.81
2018-01-27T04:17:34.142Z,1024.88
2018-01-27T04:18:34.117Z,1024.89
2018-01-27T04:19:34.088Z,1024.89
2018-01-27T04:20:34.348Z,1024.92
2018-01-27T04:21:34.023Z,1024.93
2018-01-27T04:22:33.999Z,1024.95
2018-01-27T04:23:33.968Z,1024.95
2018-01-27T04:24:33.931Z,1024.97
2018-01-27T04:25:33.898Z,1024.98
2018-01-27T04:26:33.880Z,1024.97
2018-01-27T04:27:33.842Z,1024.99
2018-01-27T04:28:33.818Z,1024.97
2018-01-27T04:29:33.792Z,1025.00
2018-01-27T04:30:33.754Z,1025.02
2018-01-27T04:31:33.724Z,1024.99
2018-01-27T04:32:33.704Z,1024.99
2018-01-27T04:33:33.668Z,1025.00
2018-01-27T04:34:33.644Z,1025.07
2018-01-27T04:35:33.611Z,1025.06
2018-01-27T04:36:33.576Z,1025.01
2018-01-27T04:37:33.543Z,1025.05
2018-01-27T04:38:33.521Z,1025.06
2018-01-27T04:39:33.507Z,1025.04
2018-01-27T04:40:33.457Z,1025.11
2018-01-27T04:41:33.428Z,1025.11
2018-01-27T04:42:33.394Z,1025.12
2018-01-27T04:43:33.619Z,1025.17
2018-01-27T04:44:33.347Z,1025.18
2018-01-27T04:45:33.317Z,1025.14
2018-01-27T04:46:33.276Z,1025.16
2018-01-27T04:47:33.254Z,1025.19
2018-01-27T04:48:33.229Z,1025.17
2018-01-27T04:49:33.202Z,1025.20
2018-01-27T04:50:33.164Z,1025.19
2018-01-27T04:51:33.139Z,1025.20
2018-01-27T04:52:33.100Z,1025.24
2018-01-27T04:53:33.076Z,1025.25
2018-01-27T04:54:33.054Z,1025.29
2018-01-27T04:55:33.818Z,1025.24
2018-01-27T04:56:32.984Z,1025.26
2018-01-27T04:57:32.954Z,1025.25
2018-01-27T04:58:32.924Z,1025.27
2018-01-27T04:59:32.896Z,1025.29
2018-01-27T05:00:32.873Z,1025.26
2018-01-27T05:01:32.839Z,1025.25
2018-01-27T05:02:32.816Z,1025.26
2018-01-27T05:03:32.788Z,1025.27
2018-01-27T05:04:32.754Z,1025.28
2018-01-27T05:05:32.719Z,1025.24
2018-01-27T05:06:32.687Z,1025.27
2018-01-27T05:07:32.657Z,1025.32
2018-01-27T05:08:32.635Z,1025.31
2018-01-27T05:09:32.610Z,1025.28
2018-01-27T05:10:32.575Z,1025.28
2018-01-27T05:11:32.547Z,1025.31
2018-01-27T05:12:32.519Z,1025.31
2018-01-27T05:13:32.486Z,1025.31
2018-01-27T05:14:32.466Z,1025.26
2018-01-27T05:15:32.426Z,1025.36
2018-01-27T05:16:32.401Z,1025.36
2018-01-27T05:17:32.364Z,1025.38
2018-01-27T05:18:32.338Z,1025.39
2018-01-27T05:19:32.308Z,1025.39
2018-01-27T05:20:32.279Z,1025.39
2018-01-27T05:21:32.260Z,1025.43
2018-01-27T05:22:32.222Z,1025.43
2018-01-27T05:23:32.189Z,1025.46
2018-01-27T05:24:32.164Z,1025.52
2018-01-27T05:25:32.140Z,1025.49
2018-01-27T05:26:32.100Z,1025.46
2018-01-27T05:27:32.069Z,1025.46
2018-01-27T05:28:32.047Z,1025.47
2018-01-27T05:29:32.017Z,1025.45
2018-01-27T05:30:32.005Z,1025.40
2018-01-27T05:31:32.269Z,1025.50
2018-01-27T05:32:31.929Z,1025.52
2018-01-27T05:33:31.892Z,1025.53
2018-01-27T05:34:31.871Z,1025.57
2018-01-27T05:35:31.847Z,1025.56
2018-01-27T05:36:31.806Z,1025.59
2018-01-27T05:37:31.776Z,1025.55
2018-01-27T05:38:31.744Z,1025.57
2018-01-27T05:39:31.718Z,1025.57
2018-01-27T05:40:31.696Z,1025.57
2018-01-27T05:41:31.664Z,1025.54
2018-01-27T05:42:31.635Z,1025.60
2018-01-27T05:43:31.601Z,1025.55
2018-01-27T05:44:31.574Z,1025.52
2018-01-27T05:45:31.547Z,1025.56
2018-01-27T05:46:31.525Z,1025.56
2018-01-27T05:47:31.491Z,1025.50
2018-01-27T05:48:31.704Z,1025.51
2018-01-27T05:49:31.426Z,1025.52
2018-01-27T05:50:31.401Z,1025.52
2018-01-27T05:51:31.372Z,1025.50
2018-01-27T05:52:31.339Z,1025.51
2018-01-27T05:53:31.302Z,1025.52
2018-01-27T05:54:31.277Z,1025.40
2018-01-27T05:55:31.251Z,1025.47
2018-01-27T05:56:31.220Z,1025.45
2018-01-27T05:57:31.194Z,1025.48
2018-01-27T05:58:31.158Z,1025.52
2018-01-27T05:59:31.133Z,1025.51
2018-01-27T06:00:31.405Z,1025.58
2018-01-27T06:01:31.072Z,1025.64
2018-01-27T06:02:31.051Z,1025.58
2018-01-27T06:03:31.016Z,1025.64
2018-01-27T06:04:30.981Z,1025.62
2018-01-27T06:05:30.950Z,1025.68
2018-01-27T06:06:30.931Z,1025.65
2018-01-27T06:07:30.896Z,1025.62
2018-01-27T06:08:30.866Z,1025.64
2018-01-27T06:09:30.835Z,1025.66
2018-01-27T06:10:30.806Z,1025.58
2018-01-27T06:11:30.773Z,1025.67
2018-01-27T06:12:30.752Z,1025.69
2018-01-27T06:13:30.725Z,1025.70
2018-01-27T06:14:30.687Z,1025.65
2018-01-27T06:15:30.654Z,1025.67
2018-01-27T06:16:30.635Z,1025.63
2018-01-27T06:17:30.604Z,1025.59
2018-01-27T06:18:30.572Z,1025.56
2018-01-27T06:19:30.543Z,1025.60
2018-01-27T06:20:30.508Z,1025.56
2018-01-27T06:21:30.482Z,1025.70
2018-01-27T06:22:30.458Z,1025.80
2018-01-27T06:23:30.432Z,1025.79
2018-01-27T06:24:30.391Z,1025.73
2018-01-27T06:25:30.365Z,1025.68
2018-01-27T06:26:30.330Z,1025.66
2018-01-27T06:27:30.312Z,1025.64
2018-01-27T06:28:30.282Z,1025.68
2018-01-27T06:29:30.543Z,1025.74
2018-01-27T06:30:30.218Z,1025.78
2018-01-27T06:31:30.185Z,1025.86
2018-01-27T06:32:30.157Z,1025.82
2018-01-27T06:33:30.130Z,1025.85
2018-01-27T06:34:30.096Z,1025.88
2018-01-27T06:35:30.371Z,1025.92
2018-01-27T06:36:30.038Z,1025.87
2018-01-27T06:37:30.007Z,1025.87
2018-01-27T06:38:29.981Z,1025.95
2018-01-27T06:39:29.953Z,1025.95
2018-01-27T06:40:29.929Z,1025.97
2018-01-27T06:41:29.887Z,1026.06
2018-01-27T06:42:29.858Z,1025.99
2018-01-27T06:43:29.829Z,1025.98
2018-01-27T06:44:29.802Z,1025.96
2018-01-27T06:45:29.774Z,1025.97
2018-01-27T06:46:30.093Z,1026.01
2018-01-27T06:47:29.706Z,1025.98
2018-01-27T06:48:29.680Z,1025.90
2018-01-27T06:49:29.663Z,1026.02
2018-01-27T06:50:29.623Z,1026.07
2018-01-27T06:51:29.599Z,1026.05
2018-01-27T06:52:29.560Z,1026.03
2018-01-27T06:53:29.533Z,1026.09
2018-01-27T06:54:29.506Z,1026.12
2018-01-27T06:55:29.477Z,1026.14
2018-01-27T06:56:29.441Z,1026.20
2018-01-27T06:57:29.425Z,1026.19
2018-01-27T06:58:29.381Z,1026.13
2018-01-27T06:59:29.353Z,1026.14
2018-01-27T07:00:29.332Z,1026.10
2018-01-27T07:01:29.294Z,1026.02
2018-01-27T07:02:29.270Z,1026.14
2018-01-27T07:03:29.236Z,1026.09
2018-01-27T07:04:29.218Z,1026.09
2018-01-27T07:05:29.181Z,1026.07
2018-01-27T07:06:29.151Z,1026.17
2018-01-27T07:07:29.134Z,1026.14
2018-01-27T07:08:29.091Z,1026.18
2018-01-27T07:09:29.054Z,1026.24
2018-01-27T07:10:29.029Z,1026.17
2018-01-27T07:11:29.008Z,1026.14
2018-01-27T07:12:28.980Z,1026.22
2018-01-27T07:13:28.943Z,1026.27
2018-01-27T07:14:28.914Z,1026.24
2018-01-27T07:15:28.892Z,1026.29
2018-01-27T07:16:28.857Z,1026.26
2018-01-27T07:17:28.822Z,1026.24
2018-01-27T07:18:28.804Z,1026.29
2018-01-27T07:19:28.763Z,1026.31
2018-01-27T07:20:29.032Z,1026.27
2018-01-27T07:21:28.704Z,1026.32
2018-01-27T07:22:28.680Z,1026.33
2018-01-27T07:23:28.646Z,1026.31
2018-01-27T07:24:28.621Z,1026.34
2018-01-27T07:25:28.590Z,1026.31
2018-01-27T07:26:28.565Z,1026.36
2018-01-27T07:27:28.528Z,1026.26
2018-01-27T07:28:28.502Z,1026.32
2018-01-27T07:29:28.478Z,1026.35
2018-01-27T07:30:28.438Z,1026.34
2018-01-27T07:31:28.415Z,1026.35
2018-01-27T07:32:28.375Z,1026.30
2018-01-27T07:33:28.347Z,1026.34
2018-01-27T07:34:28.333Z,1026.37
2018-01-27T07:35:28.293Z,1026.40
2018-01-27T07:36:28.259Z,1026.39
2018-01-27T07:37:28.237Z,1026.45
2018-01-27T07:38:28.505Z,1026.44
2018-01-27T07:39:28.181Z,1026.42
2018-01-27T07:40:28.149Z,1026.46
2018-01-27T07:41:28.118Z,1026.45
2018-01-27T07:42:28.085Z,1026.47
2018-01-27T07:43:28.074Z,1026.52
2018-01-27T07:44:28.033Z,1026.54
2018-01-27T07:45:28.001Z,1026.57
2018-01-27T07:46:27.975Z,1026.66
2018-01-27T07:47:27.942Z,1026.67
2018-01-27T07:48:27.913Z,1026.64
2018-01-27T07:49:27.888Z,1026.64
2018-01-27T07:50:28.107Z,1026.66
2018-01-27T07:51:27.821Z,1026.63
2018-01-27T07:52:27.790Z,1026.67
2018-01-27T07:53:27.760Z,1026.70
2018-01-27T07:54:27.733Z,1026.66
2018-01-27T07:55:27.704Z,1026.68
2018-01-27T07:56:27.978Z,1026.67
2018-01-27T07:57:27.651Z,1026.69
2018-01-27T07:58:27.612Z,1026.69
2018-01-27T07:59:27.584Z,1026.69
2018-01-27T08:00:27.559Z,1026.72
2018-01-27T08:01:27.530Z,1026.70
2018-01-27T08:02:27.503Z,1026.76
2018-01-27T08:03:27.474Z,1026.76
2018-01-27T08:04:27.448Z,1026.75
2018-01-27T08:05:27.410Z,1026.73
2018-01-27T08:06:27.381Z,1026.75
2018-01-27T08:07:27.361Z,1026.75
2018-01-27T08:08:27.335Z,1026.73
2018-01-27T08:09:27.297Z,1026.75
2018-01-27T08:10:27.258Z,1026.84
2018-01-27T08:11:27.235Z,1026.86
2018-01-27T08:12:27.204Z,1026.85
2018-01-27T08:13:27.180Z,1026.85
2018-01-27T08:14:27.448Z,1026.83
2018-01-27T08:15:27.119Z,1026.82
2018-01-27T08:16:27.097Z,1026.85
2018-01-27T08:17:27.071Z,1026.80
2018-01-27T08:18:27.033Z,1026.77
2018-01-27T08:19:27.008Z,1026.74
2018-01-27T08:20:26.968Z,1026.78
2018-01-27T08:21:26.943Z,1026.74
2018-01-27T08:22:26.919Z,1026.79
2018-01-27T08:23:26.889Z,1026.76
2018-01-27T08:24:26.858Z,1026.76
2018-01-27T08:25:27.776Z,1026.74
2018-01-27T08:26:26.798Z,1026.73
2018-01-27T08:27:26.775Z,1026.75
2018-01-27T08:28:26.739Z,1026.77
2018-01-27T08:29:26.716Z,1026.76
2018-01-27T08:30:26.680Z,1026.76
2018-01-27T08:31:26.951Z,1026.78
2018-01-27T08:32:26.621Z,1026.86
2018-01-27T08:33:26.596Z,1026.82
2018-01-27T08:34:26.568Z,1026.78
2018-01-27T08:35:26.543Z,1026.73
2018-01-27T08:36:26.506Z,1026.75
2018-01-27T08:37:26.481Z,1026.77
2018-01-27T08:38:26.457Z,1026.76
2018-01-27T08:39:26.422Z,1026.76
2018-01-27T08:40:26.396Z,1026.74
2018-01-27T08:41:26.356Z,1026.74
2018-01-27T08:42:26.335Z,1026.74
2018-01-27T08:43:26.305Z,1026.68
2018-01-27T08:44:26.277Z,1026.70
2018-01-27T08:45:26.251Z,1026.75
2018-01-27T08:46:26.216Z,1026.78
2018-01-27T08:47:26.190Z,1026.76
2018-01-27T08:48:26.165Z,1026.80
2018-01-27T08:49:26.438Z,1026.79
2018-01-27T08:50:26.103Z,1026.78
2018-01-27T08:51:26.071Z,1026.72
2018-01-27T08:52:26.050Z,1026.69
2018-01-27T08:53:26.009Z,1026.76
2018-01-27T08:54:25.988Z,1026.76
2018-01-27T08:55:26.207Z,1026.82
2018-01-27T08:56:25.931Z,1026.81
2018-01-27T08:57:25.895Z,1026.79
2018-01-27T08:58:25.864Z,1026.84
2018-01-27T08:59:25.833Z,1026.81
2018-01-27T09:00:25.814Z,1026.91
2018-01-27T09:01:25.782Z,1026.85
2018-01-27T09:02:25.747Z,1026.93
2018-01-27T09:03:25.719Z,1026.87
2018-01-27T09:04:25.699Z,1026.96
2018-01-27T09:05:25.727Z,1026.91
2018-01-27T09:06:25.641Z,1026.90
2018-01-27T09:07:25.614Z,1026.91
2018-01-27T09:08:25.576Z,1026.90
2018-01-27T09:09:25.573Z,1026.91
2018-01-27T09:10:25.517Z,1026.90
2018-01-27T09:11:25.492Z,1026.89
2018-01-27T09:12:25.456Z,1026.90
2018-01-27T09:13:25.426Z,1026.95
2018-01-27T09:14:25.409Z,1026.94
2018-01-27T09:15:25.374Z,1026.99
2018-01-27T09:16:25.352Z,1026.90
2018-01-27T09:17:25.316Z,1026.91
2018-01-27T09:18:25.293Z,1026.89
2018-01-27T09:19:25.261Z,1026.92
2018-01-27T09:20:25.236Z,1026.93
2018-01-27T09:21:25.194Z,1026.98
2018-01-27T09:22:25.168Z,1027.00
2018-01-27T09:23:25.139Z,1027.02
2018-01-27T09:24:25.119Z,1026.95
2018-01-27T09:25:25.082Z,1026.98
2018-01-27T09:26:25.056Z,1027.04
2018-01-27T09:27:25.024Z,1027.01
2018-01-27T09:28:24.999Z,1026.99
2018-01-27T09:29:24.973Z,1027.00
2018-01-27T09:30:24.940Z,1027.01
2018-01-27T09:31:24.914Z,1027.03
2018-01-27T09:32:24.874Z,1027.01
2018-01-27T09:33:24.859Z,1027.00
2018-01-27T09:34:24.828Z,1027.10
2018-01-27T09:35:24.794Z,1027.00
2018-01-27T09:36:25.070Z,1027.07
2018-01-27T09:37:24.740Z,1027.15
2018-01-27T09:38:24.707Z,1027.12
2018-01-27T09:39:24.680Z,1027.13
2018-01-27T09:40:24.654Z,1027.19
2018-01-27T09:41:24.643Z,1027.19
2018-01-27T09:42:24.602Z,1027.26
2018-01-27T09:43:24.566Z,1027.30
2018-01-27T09:44:24.536Z,1027.23
2018-01-27T09:45:24.514Z,1027.21
2018-01-27T09:46:24.486Z,1027.20
2018-01-27T09:47:24.459Z,1027.11
2018-01-27T09:48:24.423Z,1027.13
2018-01-27T09:49:24.403Z,1027.19
2018-01-27T09:50:24.372Z,1027.22
2018-01-27T09:51:24.346Z,1027.23
2018-01-27T09:52:24.312Z,1027.31
2018-01-27T09:53:24.283Z,1027.28
2018-01-27T09:54:24.250Z,1027.25
2018-01-27T09:55:24.272Z,1027.38
2018-01-27T09:56:24.206Z,1027.34
2018-01-27T09:57:24.172Z,1027.31
2018-01-27T09:58:24.156Z,1027.36
2018-01-27T09:59:24.119Z,1027.34
2018-01-27T10:00:24.098Z,1027.42
2018-01-27T10:01:24.065Z,1027.44
2018-01-27T10:02:24.033Z,1027.38
2018-01-27T10:03:24.005Z,1027.42
2018-01-27T10:04:24.326Z,1027.40
2018-01-27T10:05:23.940Z,1027.43
2018-01-27T10:06:23.919Z,1027.42
2018-01-27T10:07:23.889Z,1027.46
2018-01-27T10:08:23.862Z,1027.36
2018-01-27T10:09:23.830Z,1027.31
2018-01-27T10:10:23.815Z,1027.30
2018-01-27T10:11:23.776Z,1027.30
2018-01-27T10:12:23.755Z,1027.34
2018-01-27T10:13:23.726Z,1027.38
2018-01-27T10:14:23.696Z,1027.32
2018-01-27T10:15:23.665Z,1027.31
2018-01-27T10:16:23.643Z,1027.37
2018-01-27T10:17:23.629Z,1027.28
2018-01-27T10:18:23.586Z,1027.23
2018-01-27T10:19:23.558Z,1027.22
2018-01-27T10:20:23.531Z,1027.18
2018-01-27T10:21:23.501Z,1027.13
2018-01-27T10:22:23.829Z,1027.22
2018-01-27T10:23:23.441Z,1027.20
2018-01-27T10:24:23.411Z,1027.19
2018-01-27T10:25:23.379Z,1027.26
2018-01-27T10:26:23.357Z,1027.18
2018-01-27T10:27:23.328Z,1027.19
2018-01-27T10:28:23.305Z,1027.24
2018-01-27T10:29:23.308Z,1027.26
2018-01-27T10:30:23.239Z,1027.24
2018-01-27T10:31:23.215Z,1027.24
2018-01-27T10:32:23.189Z,1027.25
2018-01-27T10:33:23.166Z,1027.15
2018-01-27T10:34:23.137Z,1027.23
2018-01-27T10:35:23.109Z,1027.19
2018-01-27T10:36:23.078Z,1027.19
2018-01-27T10:37:23.062Z,1027.21
2018-01-27T10:38:23.073Z,1027.20
2018-01-27T10:39:22.996Z,1027.17
2018-01-27T10:40:23.268Z,1027.27
2018-01-27T10:41:22.936Z,1027.28
2018-01-27T10:42:22.904Z,1027.33
2018-01-27T10:43:22.877Z,1027.35
2018-01-27T10:44:22.863Z,1027.35
2018-01-27T10:45:22.825Z,1027.39
2018-01-27T10:46:22.795Z,1027.40
2018-01-27T10:47:22.770Z,1027.41
2018-01-27T10:48:22.742Z,1027.30
2018-01-27T10:49:22.717Z,1027.30
2018-01-27T10:50:22.689Z,1027.39
2018-01-27T10:51:22.657Z,1027.23
2018-01-27T10:52:22.630Z,1027.28
2018-01-27T10:53:22.601Z,1027.22
2018-01-27T10:54:22.579Z,1027.09
2018-01-27T10:55:22.549Z,1027.10
2018-01-27T10:56:22.523Z,1027.25
2018-01-27T10:57:22.494Z,1027.31
2018-01-27T10:58:22.470Z,1027.36
2018-01-27T10:59:22.436Z,1027.20
2018-01-27T11:00:22.414Z,1027.32
2018-01-27T11:01:22.388Z,1027.41
2018-01-27T11:02:22.351Z,1027.48
2018-01-27T11:03:22.336Z,1027.34
2018-01-27T11:04:22.323Z,1027.23
2018-01-27T11:05:22.277Z,1027.25
2018-01-27T11:06:22.251Z,1027.31
2018-01-27T11:07:22.223Z,1027.34
2018-01-27T11:08:22.189Z,1027.27
2018-01-27T11:09:22.163Z,1027.11
2018-01-27T11:10:22.144Z,1027.13
2018-01-27T11:11:22.115Z,1027.10
2018-01-27T11:12:22.083Z,1027.03
2018-01-27T11:13:22.055Z,1027.08
2018-01-27T11:14:22.035Z,1027.10
2018-01-27T11:15:22.309Z,1027.13
2018-01-27T11:16:21.980Z,1027.10
2018-01-27T11:17:21.958Z,1026.97
2018-01-27T11:18:21.920Z,1026.97
2018-01-27T11:19:21.893Z,1026.95
2018-01-27T11:20:21.871Z,1027.08
2018-01-27T11:21:21.843Z,1026.99
2018-01-27T11:22:21.821Z,1027.05
2018-01-27T11:23:21.788Z,1026.94
2018-01-27T11:24:21.755Z,1026.97
2018-01-27T11:25:21.732Z,1026.81
2018-01-27T11:26:21.698Z,1027.02
2018-01-27T11:27:21.670Z,1026.94
2018-01-27T11:28:21.654Z,1027.03
2018-01-27T11:29:21.619Z,1026.78
2018-01-27T11:30:21.603Z,1026.91
2018-01-27T11:31:21.573Z,1026.89
2018-01-27T11:32:21.536Z,1026.87
2018-01-27T11:33:21.509Z,1026.80
2018-01-27T11:34:21.486Z,1026.82
2018-01-27T11:35:21.454Z,1026.79
2018-01-27T11:36:21.421Z,1026.98
2018-01-27T11:37:21.393Z,1026.77
2018-01-27T11:38:21.382Z,1026.84
2018-01-27T11:39:21.345Z,1026.89
2018-01-27T11:40:21.323Z,1026.89
2018-01-27T11:41:21.289Z,1026.81
2018-01-27T11:42:21.256Z,1026.79
2018-01-27T11:43:21.228Z,1026.76
2018-01-27T11:44:21.202Z,1026.81
2018-01-27T11:45:21.181Z,1026.83
2018-01-27T11:46:21.157Z,1026.84
2018-01-27T11:47:21.122Z,1026.78
2018-01-27T11:48:21.085Z,1026.82
2018-01-27T11:49:21.057Z,1026.86
2018-01-27T11:50:21.050Z,1026.80
2018-01-27T11:51:21.013Z,1026.73
2018-01-27T11:52:20.976Z,1026.78
2018-01-27T11:53:20.984Z,1026.65
2018-01-27T11:54:20.920Z,1026.79
2018-01-27T11:55:20.887Z,1026.86
2018-01-27T11:56:20.867Z,1026.75
2018-01-27T11:57:20.838Z,1026.89
2018-01-27T11:58:20.807Z,1026.87
2018-01-27T11:59:20.785Z,1026.90
2018-01-27T12:00:20.754Z,1026.78
2018-01-27T12:01:20.740Z,1026.76
2018-01-27T12:02:20.703Z,1026.74
2018-01-27T12:03:20.671Z,1026.73
2018-01-27T12:04:20.639Z,1026.67
2018-01-27T12:05:20.612Z,1026.85